sensor_id;sensor_type;location;lat;lon;timestamp;temperature;humidity
4811;DHT22;2419;51.276;6.472;2022-11-20T00:01:22;2.80;99.90
4811;DHT22;2419;51.276;6.472;2022-11-20T00:03:52;2.70;99.90
4811;DHT22;2419;51.276;6.472;2022-11-20T00:06:21;2.60;99.90
4811;DHT22;2419;51.276;6.472;2022-11-20T00:08:51;2.70;99.90
4811;DHT22;2419;51.276;6.472;2022-11-20T00:11:21;2.60;99.90
4811;DHT22;2419;51.276;6.472;2022-11-20T00:13:51;2.60;99.90
4811;DHT22;2419;51.276;6.472;2022-11-20T00:16:22;2.50;99.90
4811;DHT22;2419;51.276;6.472;2022-11-20T00:18:51;2.50;99.90
4811;DHT22;2419;51.276;6.472;2022-11-20T00:21:21;2.60;99.90
4811;DHT22;2419;51.276;6.472;2022-11-20T00:23:51;2.70;99.90
4811;DHT22;2419;51.276;6.472;2022-11-20T00:26:23;2.60;99.90
4811;DHT22;2419;51.276;6.472;2022-11-20T00:28:53;2.50;99.90
4811;DHT22;2419;51.276;6.472;2022-11-20T00:31:23;2.50;99.90
4811;DHT22;2419;51.276;6.472;2022-11-20T00:33:51;2.60;99.90
4811;DHT22;2419;51.276;6.472;2022-11-20T00:36:22;2.50;99.90
4811;DHT22;2419;51.276;6.472;2022-11-20T00:38:51;2.40;99.90
4811;DHT22;2419;51.276;6.472;2022-11-20T00:41:20;2.50;99.90
4811;DHT22;2419;51.276;6.472;2022-11-20T00:43:49;2.50;99.90
4811;DHT22;2419;51.276;6.472;2022-11-20T00:46:21;2.50;99.90
4811;DHT22;2419;51.276;6.472;2022-11-20T00:48:51;2.50;99.90
4811;DHT22;2419;51.276;6.472;2022-11-20T00:51:21;2.50;99.90
4811;DHT22;2419;51.276;6.472;2022-11-20T00:53:50;2.60;99.90
4811;DHT22;2419;51.276;6.472;2022-11-20T00:56:19;2.50;99.90
4811;DHT22;2419;51.276;6.472;2022-11-20T00:58:48;2.60;99.90
4811;DHT22;2419;51.276;6.472;2022-11-20T01:01:19;2.50;99.90
4811;DHT22;2419;51.276;6.472;2022-11-20T01:03:49;2.50;99.90
4811;DHT22;2419;51.276;6.472;2022-11-20T01:06:19;2.50;99.90
4811;DHT22;2419;51.276;6.472;2022-11-20T01:08:49;2.40;99.90
4811;DHT22;2419;51.276;6.472;2022-11-20T01:11:20;2.40;99.90
4811;DHT22;2419;51.276;6.472;2022-11-20T01:13:49;2.40;99.90
4811;DHT22;2419;51.276;6.472;2022-11-20T01:16:20;2.40;99.90
4811;DHT22;2419;51.276;6.472;2022-11-20T01:18:50;2.40;99.90
4811;DHT22;2419;51.276;6.472;2022-11-20T01:21:21;2.40;99.90
4811;DHT22;2419;51.276;6.472;2022-11-20T01:23:50;2.40;99.90
4811;DHT22;2419;51.276;6.472;2022-11-20T01:26:20;2.30;99.90
4811;DHT22;2419;51.276;6.472;2022-11-20T01:28:48;2.30;99.90
4811;DHT22;2419;51.276;6.472;2022-11-20T01:31:18;2.40;99.90
4811;DHT22;2419;51.276;6.472;2022-11-20T01:33:48;2.40;99.90
4811;DHT22;2419;51.276;6.472;2022-11-20T01:36:18;2.40;99.90
4811;DHT22;2419;51.276;6.472;2022-11-20T01:38:51;2.30;99.90
4811;DHT22;2419;51.276;6.472;2022-11-20T01:41:20;2.30;99.90
4811;DHT22;2419;51.276;6.472;2022-11-20T01:44:03;2.20;99.90
4811;DHT22;2419;51.276;6.472;2022-11-20T01:46:33;2.10;99.90
4811;DHT22;2419;51.276;6.472;2022-11-20T01:49:05;1.90;99.90
4811;DHT22;2419;51.276;6.472;2022-11-20T01:51:41;1.90;99.90
4811;DHT22;2419;51.276;6.472;2022-11-20T01:54:17;1.70;99.90
4811;DHT22;2419;51.276;6.472;2022-11-20T01:56:51;1.70;99.90
4811;DHT22;2419;51.276;6.472;2022-11-20T01:59:21;1.60;99.90
4811;DHT22;2419;51.276;6.472;2022-11-20T02:01:50;1.50;99.90
4811;DHT22;2419;51.276;6.472;2022-11-20T02:04:19;1.40;99.90
4811;DHT22;2419;51.276;6.472;2022-11-20T02:06:50;1.30;99.90
4811;DHT22;2419;51.276;6.472;2022-11-20T02:09:20;1.20;99.90
4811;DHT22;2419;51.276;6.472;2022-11-20T02:11:49;1.00;99.90
4811;DHT22;2419;51.276;6.472;2022-11-20T02:14:17;0.90;99.90
4811;DHT22;2419;51.276;6.472;2022-11-20T02:16:46;0.80;99.90
4811;DHT22;2419;51.276;6.472;2022-11-20T02:19:22;0.70;99.90
4811;DHT22;2419;51.276;6.472;2022-11-20T02:21:56;0.60;99.90
4811;DHT22;2419;51.276;6.472;2022-11-20T02:24:28;0.50;99.90
4811;DHT22;2419;51.276;6.472;2022-11-20T02:26:59;0.40;99.90
4811;DHT22;2419;51.276;6.472;2022-11-20T02:29:34;0.30;99.90
4811;DHT22;2419;51.276;6.472;2022-11-20T02:32:04;0.30;99.90
4811;DHT22;2419;51.276;6.472;2022-11-20T02:34:32;0.30;99.90
4811;DHT22;2419;51.276;6.472;2022-11-20T02:37:01;0.30;99.90
4811;DHT22;2419;51.276;6.472;2022-11-20T02:39:31;0.20;99.90
4811;DHT22;2419;51.276;6.472;2022-11-20T02:42:01;0.10;99.90
4811;DHT22;2419;51.276;6.472;2022-11-20T02:44:29;0.10;99.90
4811;DHT22;2419;51.276;6.472;2022-11-20T02:46:57;0.00;99.90
4811;DHT22;2419;51.276;6.472;2022-11-20T02:49:26;0.10;99.90
4811;DHT22;2419;51.276;6.472;2022-11-20T02:51:54;0.00;99.90
4811;DHT22;2419;51.276;6.472;2022-11-20T02:54:22;-0.10;99.90
4811;DHT22;2419;51.276;6.472;2022-11-20T02:56:53;-0.10;99.90
4811;DHT22;2419;51.276;6.472;2022-11-20T02:59:21;-0.20;99.90
4811;DHT22;2419;51.276;6.472;2022-11-20T03:01:49;-0.20;99.90
4811;DHT22;2419;51.276;6.472;2022-11-20T03:04:17;-0.10;99.90
4811;DHT22;2419;51.276;6.472;2022-11-20T03:06:45;-0.10;99.90
4811;DHT22;2419;51.276;6.472;2022-11-20T03:09:14;-0.20;99.90
4811;DHT22;2419;51.276;6.472;2022-11-20T03:11:42;-0.20;99.90
4811;DHT22;2419;51.276;6.472;2022-11-20T03:23:35;-0.30;99.90
4811;DHT22;2419;51.276;6.472;2022-11-20T03:26:13;-0.30;99.90
4811;DHT22;2419;51.276;6.472;2022-11-20T03:28:42;-0.30;99.90
4811;DHT22;2419;51.276;6.472;2022-11-20T03:31:15;-0.30;99.90
4811;DHT22;2419;51.276;6.472;2022-11-20T03:39:35;-0.20;99.90
4811;DHT22;2419;51.276;6.472;2022-11-20T03:42:04;-0.10;99.90
4811;DHT22;2419;51.276;6.472;2022-11-20T03:44:52;0.20;99.90
4811;DHT22;2419;51.276;6.472;2022-11-20T03:47:21;0.30;99.90
4811;DHT22;2419;51.276;6.472;2022-11-20T03:49:50;0.40;99.90
4811;DHT22;2419;51.276;6.472;2022-11-20T03:52:18;0.60;99.90
4811;DHT22;2419;51.276;6.472;2022-11-20T03:54:47;0.70;99.90
4811;DHT22;2419;51.276;6.472;2022-11-20T03:57:15;0.70;99.90
4811;DHT22;2419;51.276;6.472;2022-11-20T04:09:05;0.90;99.90
4811;DHT22;2419;51.276;6.472;2022-11-20T04:11:37;0.90;99.90
4811;DHT22;2419;51.276;6.472;2022-11-20T04:14:13;0.90;99.90
4811;DHT22;2419;51.276;6.472;2022-11-20T04:16:42;1.00;99.90
4811;DHT22;2419;51.276;6.472;2022-11-20T04:19:12;0.90;99.90
4811;DHT22;2419;51.276;6.472;2022-11-20T04:21:40;1.00;99.90
4811;DHT22;2419;51.276;6.472;2022-11-20T04:24:08;1.00;99.90
4811;DHT22;2419;51.276;6.472;2022-11-20T04:26:39;1.00;99.90
4811;DHT22;2419;51.276;6.472;2022-11-20T04:29:10;1.00;99.90
4811;DHT22;2419;51.276;6.472;2022-11-20T04:31:38;1.10;99.90
4811;DHT22;2419;51.276;6.472;2022-11-20T04:34:07;1.00;99.90
4811;DHT22;2419;51.276;6.472;2022-11-20T04:36:35;1.10;99.90
4811;DHT22;2419;51.276;6.472;2022-11-20T04:39:05;1.10;99.90
4811;DHT22;2419;51.276;6.472;2022-11-20T04:41:35;1.10;99.90
4811;DHT22;2419;51.276;6.472;2022-11-20T04:44:05;1.10;99.90
4811;DHT22;2419;51.276;6.472;2022-11-20T04:46:36;1.10;99.90
4811;DHT22;2419;51.276;6.472;2022-11-20T04:49:04;1.10;99.90
4811;DHT22;2419;51.276;6.472;2022-11-20T04:51:33;1.00;99.90
4811;DHT22;2419;51.276;6.472;2022-11-20T04:54:01;1.10;99.90
4811;DHT22;2419;51.276;6.472;2022-11-20T04:56:29;1.10;99.90
4811;DHT22;2419;51.276;6.472;2022-11-20T04:59:00;1.10;99.90
4811;DHT22;2419;51.276;6.472;2022-11-20T05:01:30;1.00;99.90
4811;DHT22;2419;51.276;6.472;2022-11-20T05:03:59;1.10;99.90
4811;DHT22;2419;51.276;6.472;2022-11-20T05:06:27;1.20;99.90
4811;DHT22;2419;51.276;6.472;2022-11-20T05:08:55;1.20;99.90
4811;DHT22;2419;51.276;6.472;2022-11-20T05:11:23;1.30;99.90
4811;DHT22;2419;51.276;6.472;2022-11-20T05:13:51;1.30;99.90
4811;DHT22;2419;51.276;6.472;2022-11-20T05:16:21;1.30;99.90
4811;DHT22;2419;51.276;6.472;2022-11-20T05:18:53;1.40;99.90
4811;DHT22;2419;51.276;6.472;2022-11-20T05:21:22;1.40;99.90
4811;DHT22;2419;51.276;6.472;2022-11-20T05:23:50;1.30;99.90
4811;DHT22;2419;51.276;6.472;2022-11-20T05:26:20;1.40;99.90
4811;DHT22;2419;51.276;6.472;2022-11-20T05:28:49;1.40;99.90
4811;DHT22;2419;51.276;6.472;2022-11-20T05:31:21;1.40;99.90
4811;DHT22;2419;51.276;6.472;2022-11-20T05:33:56;1.40;99.90
4811;DHT22;2419;51.276;6.472;2022-11-20T05:36:25;1.50;99.90
4811;DHT22;2419;51.276;6.472;2022-11-20T05:38:53;1.50;99.90
4811;DHT22;2419;51.276;6.472;2022-11-20T05:41:27;1.50;99.90
4811;DHT22;2419;51.276;6.472;2022-11-20T05:43:56;1.50;99.90
4811;DHT22;2419;51.276;6.472;2022-11-20T05:46:26;1.50;99.90
4811;DHT22;2419;51.276;6.472;2022-11-20T05:48:57;1.60;99.90
4811;DHT22;2419;51.276;6.472;2022-11-20T05:51:26;1.60;99.90
4811;DHT22;2419;51.276;6.472;2022-11-20T05:53:56;1.60;99.90
4811;DHT22;2419;51.276;6.472;2022-11-20T05:56:25;1.60;99.90
4811;DHT22;2419;51.276;6.472;2022-11-20T05:58:53;1.40;99.90
4811;DHT22;2419;51.276;6.472;2022-11-20T06:01:23;1.50;99.90
4811;DHT22;2419;51.276;6.472;2022-11-20T06:03:52;1.40;99.90
4811;DHT22;2419;51.276;6.472;2022-11-20T06:06:22;1.40;99.90
4811;DHT22;2419;51.276;6.472;2022-11-20T06:08:51;1.40;99.90
4811;DHT22;2419;51.276;6.472;2022-11-20T06:11:20;1.40;99.90
4811;DHT22;2419;51.276;6.472;2022-11-20T06:13:48;1.30;99.90
4811;DHT22;2419;51.276;6.472;2022-11-20T06:16:18;1.40;99.90
4811;DHT22;2419;51.276;6.472;2022-11-20T06:18:47;1.40;99.90
4811;DHT22;2419;51.276;6.472;2022-11-20T06:21:17;1.30;99.90
4811;DHT22;2419;51.276;6.472;2022-11-20T06:23:48;1.30;99.90
4811;DHT22;2419;51.276;6.472;2022-11-20T06:26:18;1.30;99.90
4811;DHT22;2419;51.276;6.472;2022-11-20T06:28:47;1.20;99.90
4811;DHT22;2419;51.276;6.472;2022-11-20T06:31:17;1.20;99.90
4811;DHT22;2419;51.276;6.472;2022-11-20T06:33:46;1.20;99.90
4811;DHT22;2419;51.276;6.472;2022-11-20T06:36:16;1.20;99.90
4811;DHT22;2419;51.276;6.472;2022-11-20T06:38:45;1.20;99.90
4811;DHT22;2419;51.276;6.472;2022-11-20T06:41:16;1.10;99.90
4811;DHT22;2419;51.276;6.472;2022-11-20T06:43:44;1.00;99.90
4811;DHT22;2419;51.276;6.472;2022-11-20T06:46:13;1.10;99.90
4811;DHT22;2419;51.276;6.472;2022-11-20T06:48:44;1.10;99.90
4811;DHT22;2419;51.276;6.472;2022-11-20T06:51:12;1.10;99.90
4811;DHT22;2419;51.276;6.472;2022-11-20T06:53:41;1.10;99.90
4811;DHT22;2419;51.276;6.472;2022-11-20T06:56:09;1.20;99.90
4811;DHT22;2419;51.276;6.472;2022-11-20T06:58:38;1.20;99.90
4811;DHT22;2419;51.276;6.472;2022-11-20T07:01:09;1.20;99.90
4811;DHT22;2419;51.276;6.472;2022-11-20T07:03:38;1.20;99.90
4811;DHT22;2419;51.276;6.472;2022-11-20T07:06:07;1.30;99.90
4811;DHT22;2419;51.276;6.472;2022-11-20T07:08:35;1.30;99.90
4811;DHT22;2419;51.276;6.472;2022-11-20T07:11:05;1.30;99.90
4811;DHT22;2419;51.276;6.472;2022-11-20T07:13:34;1.40;99.90
4811;DHT22;2419;51.276;6.472;2022-11-20T07:16:06;1.40;99.90
4811;DHT22;2419;51.276;6.472;2022-11-20T07:18:35;1.40;99.90
4811;DHT22;2419;51.276;6.472;2022-11-20T07:21:05;1.60;99.90
4811;DHT22;2419;51.276;6.472;2022-11-20T07:23:34;1.60;99.90
4811;DHT22;2419;51.276;6.472;2022-11-20T07:26:03;1.70;99.90
4811;DHT22;2419;51.276;6.472;2022-11-20T07:28:32;1.70;99.90
4811;DHT22;2419;51.276;6.472;2022-11-20T07:31:00;1.70;99.90
4811;DHT22;2419;51.276;6.472;2022-11-20T07:33:30;1.80;99.90
4811;DHT22;2419;51.276;6.472;2022-11-20T07:35:59;1.80;99.90
4811;DHT22;2419;51.276;6.472;2022-11-20T07:38:27;1.80;99.90
4811;DHT22;2419;51.276;6.472;2022-11-20T07:40:56;1.70;99.90
4811;DHT22;2419;51.276;6.472;2022-11-20T07:43:24;1.70;99.90
4811;DHT22;2419;51.276;6.472;2022-11-20T07:45:55;1.80;99.90
4811;DHT22;2419;51.276;6.472;2022-11-20T07:48:23;1.90;99.90
4811;DHT22;2419;51.276;6.472;2022-11-20T07:50:54;1.90;99.90
4811;DHT22;2419;51.276;6.472;2022-11-20T07:53:23;2.00;99.90
4811;DHT22;2419;51.276;6.472;2022-11-20T07:55:51;2.10;99.90
4811;DHT22;2419;51.276;6.472;2022-11-20T07:58:19;2.00;99.90
4811;DHT22;2419;51.276;6.472;2022-11-20T08:00:48;2.10;99.90
4811;DHT22;2419;51.276;6.472;2022-11-20T08:03:16;2.00;99.90
4811;DHT22;2419;51.276;6.472;2022-11-20T08:05:50;2.10;99.90
4811;DHT22;2419;51.276;6.472;2022-11-20T08:08:20;2.20;99.90
4811;DHT22;2419;51.276;6.472;2022-11-20T08:10:49;2.30;99.90
4811;DHT22;2419;51.276;6.472;2022-11-20T08:13:17;2.40;99.90
4811;DHT22;2419;51.276;6.472;2022-11-20T08:16:03;2.20;99.90
4811;DHT22;2419;51.276;6.472;2022-11-20T08:18:31;2.20;99.90
4811;DHT22;2419;51.276;6.472;2022-11-20T08:21:02;2.20;99.90
4811;DHT22;2419;51.276;6.472;2022-11-20T08:23:33;2.30;99.90
4811;DHT22;2419;51.276;6.472;2022-11-20T08:26:01;2.40;99.90
4811;DHT22;2419;51.276;6.472;2022-11-20T08:28:29;2.50;99.90
4811;DHT22;2419;51.276;6.472;2022-11-20T08:31:01;2.40;99.90
4811;DHT22;2419;51.276;6.472;2022-11-20T08:33:30;2.50;99.90
4811;DHT22;2419;51.276;6.472;2022-11-20T08:36:00;2.50;99.90
4811;DHT22;2419;51.276;6.472;2022-11-20T08:38:32;2.60;99.90
4811;DHT22;2419;51.276;6.472;2022-11-20T08:41:01;2.70;99.90
4811;DHT22;2419;51.276;6.472;2022-11-20T08:43:47;2.80;99.90
4811;DHT22;2419;51.276;6.472;2022-11-20T08:46:15;2.80;99.90
4811;DHT22;2419;51.276;6.472;2022-11-20T08:48:44;2.80;99.90
4811;DHT22;2419;51.276;6.472;2022-11-20T08:51:12;2.80;99.90
4811;DHT22;2419;51.276;6.472;2022-11-20T08:53:42;2.90;99.90
4811;DHT22;2419;51.276;6.472;2022-11-20T08:56:10;3.10;99.90
4811;DHT22;2419;51.276;6.472;2022-11-20T08:58:39;3.20;99.90
4811;DHT22;2419;51.276;6.472;2022-11-20T09:01:28;3.20;99.90
4811;DHT22;2419;51.276;6.472;2022-11-20T09:03:56;3.10;99.90
4811;DHT22;2419;51.276;6.472;2022-11-20T09:06:26;3.10;99.90
4811;DHT22;2419;51.276;6.472;2022-11-20T09:08:55;3.00;99.90
4811;DHT22;2419;51.276;6.472;2022-11-20T09:11:30;3.20;99.90
4811;DHT22;2419;51.276;6.472;2022-11-20T09:13:59;3.30;99.90
4811;DHT22;2419;51.276;6.472;2022-11-20T09:16:29;3.40;99.90
4811;DHT22;2419;51.276;6.472;2022-11-20T09:18:57;3.60;99.90
4811;DHT22;2419;51.276;6.472;2022-11-20T09:21:45;3.50;99.90
4811;DHT22;2419;51.276;6.472;2022-11-20T09:24:15;3.50;99.90
4811;DHT22;2419;51.276;6.472;2022-11-20T09:26:43;3.60;99.90
4811;DHT22;2419;51.276;6.472;2022-11-20T09:29:33;3.60;99.90
4811;DHT22;2419;51.276;6.472;2022-11-20T09:32:01;3.90;99.90
4811;DHT22;2419;51.276;6.472;2022-11-20T09:34:29;3.80;99.90
4811;DHT22;2419;51.276;6.472;2022-11-20T09:36:57;4.00;99.90
4811;DHT22;2419;51.276;6.472;2022-11-20T09:39:33;4.20;99.90
4811;DHT22;2419;51.276;6.472;2022-11-20T09:42:27;4.20;99.90
4811;DHT22;2419;51.276;6.472;2022-11-20T09:45:11;4.20;99.90
4811;DHT22;2419;51.276;6.472;2022-11-20T09:47:53;3.80;99.90
4811;DHT22;2419;51.276;6.472;2022-11-20T09:50:30;3.90;99.90
4811;DHT22;2419;51.276;6.472;2022-11-20T09:53:13;3.90;99.90
4811;DHT22;2419;51.276;6.472;2022-11-20T09:55:46;4.00;99.90
4811;DHT22;2419;51.276;6.472;2022-11-20T09:58:19;4.00;99.90
4811;DHT22;2419;51.276;6.472;2022-11-20T10:00:51;3.90;99.90
4811;DHT22;2419;51.276;6.472;2022-11-20T10:03:41;4.10;99.90
4811;DHT22;2419;51.276;6.472;2022-11-20T10:06:15;4.10;99.90
4811;DHT22;2419;51.276;6.472;2022-11-20T10:08:47;4.00;99.90
4811;DHT22;2419;51.276;6.472;2022-11-20T10:11:23;4.10;99.90
4811;DHT22;2419;51.276;6.472;2022-11-20T10:14:01;4.10;99.90
4811;DHT22;2419;51.276;6.472;2022-11-20T10:16:42;4.10;99.90
4811;DHT22;2419;51.276;6.472;2022-11-20T10:19:29;4.00;99.90
4811;DHT22;2419;51.276;6.472;2022-11-20T10:22:07;4.00;99.90
4811;DHT22;2419;51.276;6.472;2022-11-20T10:24:48;4.10;99.90
4811;DHT22;2419;51.276;6.472;2022-11-20T10:30:24;4.00;99.90
4811;DHT22;2419;51.276;6.472;2022-11-20T10:32:54;4.10;99.90
4811;DHT22;2419;51.276;6.472;2022-11-20T10:35:27;4.10;99.90
4811;DHT22;2419;51.276;6.472;2022-11-20T10:37:58;4.20;99.90
4811;DHT22;2419;51.276;6.472;2022-11-20T10:40:32;4.30;99.90
4811;DHT22;2419;51.276;6.472;2022-11-20T10:43:08;4.40;99.90
4811;DHT22;2419;51.276;6.472;2022-11-20T10:45:58;4.50;99.90
4811;DHT22;2419;51.276;6.472;2022-11-20T10:48:30;4.50;99.90
4811;DHT22;2419;51.276;6.472;2022-11-20T10:51:12;4.50;99.90
4811;DHT22;2419;51.276;6.472;2022-11-20T10:53:51;4.50;99.90
4811;DHT22;2419;51.276;6.472;2022-11-20T10:56:24;4.50;99.90
4811;DHT22;2419;51.276;6.472;2022-11-20T10:59:04;4.50;99.90
4811;DHT22;2419;51.276;6.472;2022-11-20T11:01:42;4.50;99.90
4811;DHT22;2419;51.276;6.472;2022-11-20T11:04:23;4.60;99.90
4811;DHT22;2419;51.276;6.472;2022-11-20T11:06:58;4.60;99.90
4811;DHT22;2419;51.276;6.472;2022-11-20T11:09:32;4.50;99.90
4811;DHT22;2419;51.276;6.472;2022-11-20T11:12:07;4.60;99.90
4811;DHT22;2419;51.276;6.472;2022-11-20T11:14:47;4.70;99.90
4811;DHT22;2419;51.276;6.472;2022-11-20T11:17:33;4.60;99.90
4811;DHT22;2419;51.276;6.472;2022-11-20T11:20:06;4.50;99.90
4811;DHT22;2419;51.276;6.472;2022-11-20T11:22:44;4.50;99.90
4811;DHT22;2419;51.276;6.472;2022-11-20T11:25:24;4.60;99.90
4811;DHT22;2419;51.276;6.472;2022-11-20T11:27:53;4.50;99.90
4811;DHT22;2419;51.276;6.472;2022-11-20T11:30:24;4.60;99.90
4811;DHT22;2419;51.276;6.472;2022-11-20T11:33:04;4.70;99.90
4811;DHT22;2419;51.276;6.472;2022-11-20T11:35:33;4.70;99.90
4811;DHT22;2419;51.276;6.472;2022-11-20T11:38:06;4.70;99.90
4811;DHT22;2419;51.276;6.472;2022-11-20T11:40:37;4.80;99.90
4811;DHT22;2419;51.276;6.472;2022-11-20T11:43:16;4.80;99.90
4811;DHT22;2419;51.276;6.472;2022-11-20T11:46:08;4.80;99.90
4811;DHT22;2419;51.276;6.472;2022-11-20T11:48:39;4.80;99.90
4811;DHT22;2419;51.276;6.472;2022-11-20T11:51:11;4.80;99.90
4811;DHT22;2419;51.276;6.472;2022-11-20T11:53:41;4.90;99.90
4811;DHT22;2419;51.276;6.472;2022-11-20T11:56:11;4.90;99.90
4811;DHT22;2419;51.276;6.472;2022-11-20T11:58:44;5.00;99.90
4811;DHT22;2419;51.276;6.472;2022-11-20T12:01:26;4.90;99.90
4811;DHT22;2419;51.276;6.472;2022-11-20T12:04:04;5.00;99.90
4811;DHT22;2419;51.276;6.472;2022-11-20T12:06:36;5.10;99.90
4811;DHT22;2419;51.276;6.472;2022-11-20T12:09:33;5.00;99.90
4811;DHT22;2419;51.276;6.472;2022-11-20T12:12:08;5.00;99.90
4811;DHT22;2419;51.276;6.472;2022-11-20T12:14:40;5.10;99.90
4811;DHT22;2419;51.276;6.472;2022-11-20T12:17:11;5.10;99.90
4811;DHT22;2419;51.276;6.472;2022-11-20T12:19:41;5.20;99.90
4811;DHT22;2419;51.276;6.472;2022-11-20T12:22:19;5.20;99.90
4811;DHT22;2419;51.276;6.472;2022-11-20T12:24:54;5.10;99.90
4811;DHT22;2419;51.276;6.472;2022-11-20T12:27:44;5.10;99.90
4811;DHT22;2419;51.276;6.472;2022-11-20T12:30:17;5.10;99.90
4811;DHT22;2419;51.276;6.472;2022-11-20T12:33:08;5.10;99.90
4811;DHT22;2419;51.276;6.472;2022-11-20T12:39:13;5.10;99.90
4811;DHT22;2419;51.276;6.472;2022-11-20T12:45:59;5.10;99.90
4811;DHT22;2419;51.276;6.472;2022-11-20T12:48:41;5.00;99.90
4811;DHT22;2419;51.276;6.472;2022-11-20T12:51:26;5.00;99.90
4811;DHT22;2419;51.276;6.472;2022-11-20T12:54:33;5.10;99.90
4811;DHT22;2419;51.276;6.472;2022-11-20T12:57:09;5.00;99.90
4811;DHT22;2419;51.276;6.472;2022-11-20T13:00:01;5.10;99.90
4811;DHT22;2419;51.276;6.472;2022-11-20T13:02:41;5.10;99.90
4811;DHT22;2419;51.276;6.472;2022-11-20T13:05:20;5.10;99.90
4811;DHT22;2419;51.276;6.472;2022-11-20T13:07:52;5.10;99.90
4811;DHT22;2419;51.276;6.472;2022-11-20T13:10:39;5.20;99.90
4811;DHT22;2419;51.276;6.472;2022-11-20T13:13:16;5.20;99.90
4811;DHT22;2419;51.276;6.472;2022-11-20T13:15:51;5.20;99.90
4811;DHT22;2419;51.276;6.472;2022-11-20T13:18:22;5.30;99.90
4811;DHT22;2419;51.276;6.472;2022-11-20T13:20:50;5.30;99.90
4811;DHT22;2419;51.276;6.472;2022-11-20T13:23:25;5.30;99.90
4811;DHT22;2419;51.276;6.472;2022-11-20T13:26:16;5.30;99.90
4811;DHT22;2419;51.276;6.472;2022-11-20T13:28:46;5.30;99.90
4811;DHT22;2419;51.276;6.472;2022-11-20T13:31:30;5.40;99.90
4811;DHT22;2419;51.276;6.472;2022-11-20T13:34:00;5.30;99.90
4811;DHT22;2419;51.276;6.472;2022-11-20T13:36:30;5.30;99.90
4811;DHT22;2419;51.276;6.472;2022-11-20T13:38:59;5.40;99.90
4811;DHT22;2419;51.276;6.472;2022-11-20T13:41:30;5.30;99.90
4811;DHT22;2419;51.276;6.472;2022-11-20T13:44:10;5.30;99.90
4811;DHT22;2419;51.276;6.472;2022-11-20T13:46:40;5.30;99.90
4811;DHT22;2419;51.276;6.472;2022-11-20T13:49:17;5.30;99.90
4811;DHT22;2419;51.276;6.472;2022-11-20T13:51:48;5.40;99.90
4811;DHT22;2419;51.276;6.472;2022-11-20T13:54:42;5.40;99.90
4811;DHT22;2419;51.276;6.472;2022-11-20T14:00:15;5.50;99.90
4811;DHT22;2419;51.276;6.472;2022-11-20T14:02:59;5.50;99.90
4811;DHT22;2419;51.276;6.472;2022-11-20T14:05:31;5.50;99.90
4811;DHT22;2419;51.276;6.472;2022-11-20T14:08:03;5.50;99.90
4811;DHT22;2419;51.276;6.472;2022-11-20T14:10:32;5.50;99.90
4811;DHT22;2419;51.276;6.472;2022-11-20T14:13:15;5.50;99.90
4811;DHT22;2419;51.276;6.472;2022-11-20T14:15:45;5.50;99.90
4811;DHT22;2419;51.276;6.472;2022-11-20T14:18:21;5.50;99.90
4811;DHT22;2419;51.276;6.472;2022-11-20T14:20:49;5.50;99.90
4811;DHT22;2419;51.276;6.472;2022-11-20T14:23:24;5.50;99.90
4811;DHT22;2419;51.276;6.472;2022-11-20T14:25:56;5.50;99.90
4811;DHT22;2419;51.276;6.472;2022-11-20T14:28:28;5.50;99.90
4811;DHT22;2419;51.276;6.472;2022-11-20T14:30:57;5.50;99.90
4811;DHT22;2419;51.276;6.472;2022-11-20T14:33:26;5.50;99.90
4811;DHT22;2419;51.276;6.472;2022-11-20T14:35:55;5.50;99.90
4811;DHT22;2419;51.276;6.472;2022-11-20T14:38:28;5.50;99.90
4811;DHT22;2419;51.276;6.472;2022-11-20T14:41:06;5.50;99.90
4811;DHT22;2419;51.276;6.472;2022-11-20T14:43:36;5.50;99.90
4811;DHT22;2419;51.276;6.472;2022-11-20T14:46:07;5.50;99.90
4811;DHT22;2419;51.276;6.472;2022-11-20T14:48:39;5.50;99.90
4811;DHT22;2419;51.276;6.472;2022-11-20T14:51:09;5.50;99.90
4811;DHT22;2419;51.276;6.472;2022-11-20T14:53:38;5.50;99.90
4811;DHT22;2419;51.276;6.472;2022-11-20T14:56:08;5.40;99.90
4811;DHT22;2419;51.276;6.472;2022-11-20T14:58:38;5.50;99.90
4811;DHT22;2419;51.276;6.472;2022-11-20T15:01:12;5.50;99.90
4811;DHT22;2419;51.276;6.472;2022-11-20T15:03:41;5.50;99.90
4811;DHT22;2419;51.276;6.472;2022-11-20T15:06:33;5.50;99.90
4811;DHT22;2419;51.276;6.472;2022-11-20T15:09:02;5.50;99.90
4811;DHT22;2419;51.276;6.472;2022-11-20T15:11:32;5.50;99.90
4811;DHT22;2419;51.276;6.472;2022-11-20T15:14:04;5.50;99.90
4811;DHT22;2419;51.276;6.472;2022-11-20T15:16:34;5.50;99.90
4811;DHT22;2419;51.276;6.472;2022-11-20T15:19:04;5.40;99.90
4811;DHT22;2419;51.276;6.472;2022-11-20T15:21:44;5.30;99.90
4811;DHT22;2419;51.276;6.472;2022-11-20T15:24:12;5.30;99.90
4811;DHT22;2419;51.276;6.472;2022-11-20T15:26:41;5.20;99.90
4811;DHT22;2419;51.276;6.472;2022-11-20T15:29:12;5.30;99.90
4811;DHT22;2419;51.276;6.472;2022-11-20T15:31:40;5.20;99.90
4811;DHT22;2419;51.276;6.472;2022-11-20T15:34:11;5.20;99.90
4811;DHT22;2419;51.276;6.472;2022-11-20T15:36:40;5.20;99.90
4811;DHT22;2419;51.276;6.472;2022-11-20T15:39:09;5.20;99.90
4811;DHT22;2419;51.276;6.472;2022-11-20T15:41:38;5.20;99.90
4811;DHT22;2419;51.276;6.472;2022-11-20T15:44:06;5.20;99.90
4811;DHT22;2419;51.276;6.472;2022-11-20T15:46:38;5.20;99.90
4811;DHT22;2419;51.276;6.472;2022-11-20T15:49:11;5.20;99.90
4811;DHT22;2419;51.276;6.472;2022-11-20T15:51:43;5.20;99.90
4811;DHT22;2419;51.276;6.472;2022-11-20T15:54:15;5.30;99.90
4811;DHT22;2419;51.276;6.472;2022-11-20T15:56:44;5.20;99.90
4811;DHT22;2419;51.276;6.472;2022-11-20T15:59:12;5.20;99.90
4811;DHT22;2419;51.276;6.472;2022-11-20T16:01:45;5.20;99.90
4811;DHT22;2419;51.276;6.472;2022-11-20T16:04:16;5.20;99.90
4811;DHT22;2419;51.276;6.472;2022-11-20T16:06:45;5.20;99.90
4811;DHT22;2419;51.276;6.472;2022-11-20T16:09:13;5.30;99.90
4811;DHT22;2419;51.276;6.472;2022-11-20T16:11:41;5.30;99.90
4811;DHT22;2419;51.276;6.472;2022-11-20T16:14:10;5.30;99.90
4811;DHT22;2419;51.276;6.472;2022-11-20T16:16:57;5.30;99.90
4811;DHT22;2419;51.276;6.472;2022-11-20T16:19:25;5.30;99.90
4811;DHT22;2419;51.276;6.472;2022-11-20T16:21:53;5.20;99.90
4811;DHT22;2419;51.276;6.472;2022-11-20T16:24:28;5.30;99.90
4811;DHT22;2419;51.276;6.472;2022-11-20T16:26:57;5.20;99.90
4811;DHT22;2419;51.276;6.472;2022-11-20T16:29:25;5.30;99.90
4811;DHT22;2419;51.276;6.472;2022-11-20T16:31:53;5.30;99.90
4811;DHT22;2419;51.276;6.472;2022-11-20T16:34:23;5.30;99.90
4811;DHT22;2419;51.276;6.472;2022-11-20T16:36:51;5.30;99.90
4811;DHT22;2419;51.276;6.472;2022-11-20T16:39:19;5.40;99.90
4811;DHT22;2419;51.276;6.472;2022-11-20T16:41:50;5.30;99.90
4811;DHT22;2419;51.276;6.472;2022-11-20T16:44:18;5.40;99.90
4811;DHT22;2419;51.276;6.472;2022-11-20T16:46:46;5.30;99.90
4811;DHT22;2419;51.276;6.472;2022-11-20T16:49:15;5.30;99.90
4811;DHT22;2419;51.276;6.472;2022-11-20T16:51:44;5.40;99.90
4811;DHT22;2419;51.276;6.472;2022-11-20T16:54:13;5.40;99.90
4811;DHT22;2419;51.276;6.472;2022-11-20T16:56:47;5.40;99.90
4811;DHT22;2419;51.276;6.472;2022-11-20T16:59:16;5.40;99.90
4811;DHT22;2419;51.276;6.472;2022-11-20T17:01:45;5.40;99.90
4811;DHT22;2419;51.276;6.472;2022-11-20T17:04:13;5.40;99.90
4811;DHT22;2419;51.276;6.472;2022-11-20T17:06:52;5.40;99.90
4811;DHT22;2419;51.276;6.472;2022-11-20T17:09:20;5.50;99.90
4811;DHT22;2419;51.276;6.472;2022-11-20T17:11:48;5.50;99.90
4811;DHT22;2419;51.276;6.472;2022-11-20T17:14:16;5.50;99.90
4811;DHT22;2419;51.276;6.472;2022-11-20T17:16:44;5.50;99.90
4811;DHT22;2419;51.276;6.472;2022-11-20T17:19:13;5.60;99.90
4811;DHT22;2419;51.276;6.472;2022-11-20T17:21:41;5.60;99.90
4811;DHT22;2419;51.276;6.472;2022-11-20T17:24:12;5.60;99.90
4811;DHT22;2419;51.276;6.472;2022-11-20T17:26:43;5.60;99.90